Time;durP1;ratioP1;P1;durP2;ratioP2;P2;SDS_P1;SDS_P2;PMS_P1;PMS_P2;Temp;Humidity;BMP_temperature;BMP_pressure;BME280_temperature;BME280_humidity;BME280_pressure;Samples;Min_cycle;Max_cycle;Signal;HPM_P1;HPM_P2
2021/11/20 00:00:52;;;;;;;3.65;3.13;;;;;17.80;102720.00;;;;5032546;28;20188;-82
2021/11/20 00:03:19;;;;;;;3.10;2.80;;;;;17.80;102720.00;;;;5035221;28;20188;-81
2021/11/20 00:05:51;;;;;;;3.05;2.67;;;;;17.80;102722.00;;;;5044281;28;20204;-81
2021/11/20 00:08:20;;;;;;;2.85;2.47;;;;;17.80;102713.00;;;;5028271;28;20193;-81
2021/11/20 00:10:52;;;;;;;3.10;2.67;;;;;17.80;102708.00;;;;5033557;28;20282;-81
2021/11/20 00:13:20;;;;;;;2.92;2.67;;;;;17.80;102704.00;;;;5028683;28;20196;-81
2021/11/20 00:15:51;;;;;;;4.40;3.03;;;;;17.70;102708.00;;;;5033562;28;20200;-81
2021/11/20 00:18:20;;;;;;;5.18;3.13;;;;;17.70;102706.00;;;;5038085;28;20273;-82
2021/11/20 00:20:53;;;;;;;4.00;3.08;;;;;17.70;102709.00;;;;5031512;28;20203;-81
2021/11/20 00:23:24;;;;;;;3.95;3.28;;;;;17.70;102707.00;;;;5028700;28;20732;-81
2021/11/20 00:25:54;;;;;;;4.20;3.28;;;;;17.70;102694.00;;;;5039109;28;20220;-81
2021/11/20 00:28:29;;;;;;;5.72;3.28;;;;;17.70;102695.00;;;;5028172;28;20192;-82
2021/11/20 00:30:59;;;;;;;3.88;3.47;;;;;17.70;102700.00;;;;5027680;28;20195;-81
2021/11/20 00:33:29;;;;;;;3.33;2.92;;;;;17.70;102700.00;;;;5038708;28;20249;-82
2021/11/20 00:35:59;;;;;;;4.00;3.58;;;;;17.70;102702.00;;;;5028998;28;20251;-82
2021/11/20 00:38:27;;;;;;;4.60;3.38;;;;;17.70;102700.00;;;;5028538;28;20231;-81
2021/11/20 00:41:00;;;;;;;3.15;2.85;;;;;17.70;102700.00;;;;5032375;28;20196;-82
2021/11/20 00:43:28;;;;;;;5.05;3.42;;;;;17.70;102702.00;;;;5037369;28;20203;-80
2021/11/20 00:45:57;;;;;;;4.00;3.42;;;;;17.70;102698.00;;;;5041815;28;20207;-81
2021/11/20 00:48:27;;;;;;;4.20;3.40;;;;;17.60;102695.00;;;;5028174;28;20780;-81
2021/11/20 00:50:58;;;;;;;4.47;3.38;;;;;17.60;102698.00;;;;5032304;28;20612;-82
2021/11/20 00:53:27;;;;;;;4.57;4.00;;;;;17.60;102692.00;;;;5045120;28;20200;-81
2021/11/20 00:55:54;;;;;;;4.53;4.10;;;;;17.60;102688.00;;;;5034794;28;20192;-81
2021/11/20 00:58:22;;;;;;;6.43;4.30;;;;;17.60;102691.00;;;;5036290;28;20200;-81
2021/11/20 01:00:54;;;;;;;4.65;4.20;;;;;17.60;102692.00;;;;5042063;28;20200;-81
2021/11/20 01:03:23;;;;;;;4.80;4.00;;;;;17.60;102680.00;;;;5041239;28;20283;-81
2021/11/20 01:05:51;;;;;;;4.72;4.22;;;;;17.60;102679.00;;;;5047697;28;20192;-81
2021/11/20 01:08:20;;;;;;;5.22;3.80;;;;;17.60;102680.00;;;;5048734;28;20188;-81
2021/11/20 01:10:52;;;;;;;6.70;3.92;;;;;17.50;102680.00;;;;5034469;28;20203;-81
2021/11/20 01:13:19;;;;;;;5.07;4.57;;;;;17.60;102684.00;;;;5041208;28;20199;-81
2021/11/20 01:15:51;;;;;;;5.40;4.70;;;;;17.50;102680.00;;;;5050097;28;20718;-81
2021/11/20 01:18:21;;;;;;;5.28;4.43;;;;;17.50;102681.00;;;;5036114;28;20200;-81
2021/11/20 01:20:50;;;;;;;5.53;4.88;;;;;17.50;102671.00;;;;5033569;28;20207;-81
2021/11/20 01:23:19;;;;;;;6.70;5.35;;;;;17.50;102674.00;;;;5031076;28;20204;-81
2021/11/20 01:25:47;;;;;;;6.38;5.38;;;;;17.50;102674.00;;;;5049580;28;20223;-81
2021/11/20 01:28:16;;;;;;;6.07;4.90;;;;;17.50;102674.00;;;;5047962;28;20597;-81
2021/11/20 01:30:44;;;;;;;5.25;4.75;;;;;17.50;102666.00;;;;5040534;28;20200;-81
2021/11/20 01:33:11;;;;;;;6.45;5.13;;;;;17.50;102664.00;;;;5047930;28;20206;-81
2021/11/20 01:35:38;;;;;;;6.38;5.55;;;;;17.50;102684.00;;;;5050018;28;20203;-81
2021/11/20 01:38:07;;;;;;;6.65;5.18;;;;;17.50;102670.00;;;;5048968;28;20200;-81
2021/11/20 01:40:38;;;;;;;7.72;5.50;;;;;17.50;102668.00;;;;5032823;28;20760;-82
2021/11/20 01:43:07;;;;;;;6.78;5.38;;;;;17.50;102668.00;;;;5036632;28;20204;-82
2021/11/20 01:45:38;;;;;;;6.78;5.72;;;;;17.50;102667.00;;;;5031481;28;20188;-81
2021/11/20 01:48:22;;;;;;;6.38;5.60;;;;;17.40;102668.00;;;;5031685;28;20195;-81
2021/11/20 01:50:56;;;;;;;7.28;5.75;;;;;17.50;102656.00;;;;5035482;28;20207;-82
2021/11/20 01:53:37;;;;;;;6.97;5.13;;;;;17.40;102655.00;;;;5040507;28;20215;-82
2021/11/20 01:56:08;;;;;;;6.88;5.90;;;;;17.50;102652.00;;;;5030502;28;20205;-81
2021/11/20 01:58:42;;;;;;;8.38;6.65;;;;;17.50;102652.00;;;;5031977;28;20211;-82
2021/11/20 02:01:19;;;;;;;7.53;5.63;;;;;17.40;102652.00;;;;5049542;28;20193;-82
2021/11/20 02:03:51;;;;;;;7.07;5.38;;;;;17.50;102642.00;;;;5049415;28;20219;-81
2021/11/20 02:06:26;;;;;;;7.88;5.72;;;;;17.50;102641.00;;;;5032021;28;20211;-81
2021/11/20 02:09:02;;;;;;;7.43;5.72;;;;;17.50;102647.00;;;;5036608;28;20693;-81
2021/11/20 02:11:32;;;;;;;7.03;5.85;;;;;17.50;102649.00;;;;5036338;28;20211;-81
2021/11/20 02:14:00;;;;;;;7.25;5.90;;;;;17.50;102640.00;;;;5037644;28;20200;-81
2021/11/20 02:16:35;;;;;;;9.63;6.85;;;;;17.50;102633.00;;;;5037940;28;20563;-81
2021/11/20 02:19:06;;;;;;;7.95;5.88;;;;;17.50;102635.00;;;;5041560;28;20216;-81
2021/11/20 02:21:37;;;;;;;11.38;7.72;;;;;17.50;102627.00;;;;5032148;28;20202;-81
2021/11/20 02:24:04;;;;;;;9.18;6.20;;;;;17.50;102629.00;;;;5044927;28;20195;-81
2021/11/20 02:26:31;;;;;;;8.77;6.75;;;;;17.50;102621.00;;;;5048351;28;20733;-82
2021/11/20 02:29:02;;;;;;;9.18;6.72;;;;;17.50;102626.00;;;;5037122;28;20568;-81
2021/11/20 02:31:31;;;;;;;8.65;6.60;;;;;17.50;102624.00;;;;5030250;28;20208;-81
2021/11/20 02:33:58;;;;;;;8.90;6.90;;;;;17.50;102622.00;;;;5032755;28;20200;-81
2021/11/20 02:36:25;;;;;;;8.85;6.70;;;;;17.50;102616.00;;;;5039991;28;20204;-81
2021/11/20 02:39:01;;;;;;;8.27;6.07;;;;;17.40;102607.00;;;;5043466;28;20670;-81
2021/11/20 02:41:30;;;;;;;9.57;7.22;;;;;17.40;102613.00;;;;5047825;28;20199;-81
2021/11/20 02:44:00;;;;;;;9.90;7.47;;;;;17.40;102616.00;;;;5049250;28;20306;-81
2021/11/20 02:46:32;;;;;;;8.90;7.05;;;;;17.40;102612.00;;;;5048300;28;20221;-81
2021/11/20 02:48:59;;;;;;;9.93;6.85;;;;;17.50;102608.00;;;;5043011;28;20683;-81
2021/11/20 02:51:29;;;;;;;10.02;6.70;;;;;17.40;102607.00;;;;5047605;28;20242;-82
2021/11/20 02:53:59;;;;;;;9.27;6.30;;;;;17.40;102603.00;;;;5047894;28;20229;-82
2021/11/20 02:56:29;;;;;;;8.40;6.45;;;;;17.40;102602.00;;;;5050118;28;20221;-81
2021/11/20 02:58:57;;;;;;;10.48;7.00;;;;;17.40;102589.00;;;;5039399;28;20204;-81
2021/11/20 03:01:27;;;;;;;10.43;7.55;;;;;17.40;102595.00;;;;5043527;28;20199;-81
2021/11/20 03:03:57;;;;;;;8.77;6.65;;;;;17.40;102593.00;;;;5049601;28;20238;-82
2021/11/20 03:06:24;;;;;;;9.32;6.85;;;;;17.40;102594.00;;;;5047291;28;20330;-81
2021/11/20 03:08:52;;;;;;;7.80;6.10;;;;;17.40;102586.00;;;;5031717;28;20207;-81
2021/11/20 03:11:20;;;;;;;8.52;7.30;;;;;17.40;102586.00;;;;5033738;28;20192;-81
2021/11/20 03:13:50;;;;;;;8.85;6.82;;;;;17.40;102579.00;;;;5049185;28;20196;-81
2021/11/20 03:16:18;;;;;;;8.00;5.82;;;;;17.40;102578.00;;;;5041104;28;20239;-81
2021/11/20 03:18:45;;;;;;;9.18;6.18;;;;;17.40;102577.00;;;;5042733;28;20195;-81
2021/11/20 03:21:16;;;;;;;9.20;6.93;;;;;17.40;102579.00;;;;5044318;28;20225;-81
2021/11/20 03:23:46;;;;;;;7.78;6.03;;;;;17.40;102583.00;;;;5029184;28;20200;-82
2021/11/20 03:26:14;;;;;;;11.85;6.95;;;;;17.40;102573.00;;;;5028969;28;20215;-81
2021/11/20 03:28:41;;;;;;;9.02;6.53;;;;;17.40;102575.00;;;;5040414;28;20673;-81
2021/11/20 03:31:08;;;;;;;8.57;6.72;;;;;17.40;102572.00;;;;5047468;28;20205;-81
2021/11/20 03:33:36;;;;;;;9.07;6.70;;;;;17.40;102572.00;;;;5038121;28;20307;-81
2021/11/20 03:36:05;;;;;;;10.32;6.40;;;;;17.40;102574.00;;;;5028914;28;20208;-81
2021/11/20 03:38:33;;;;;;;8.23;6.03;;;;;17.40;102571.00;;;;5046068;28;20188;-80
2021/11/20 03:41:01;;;;;;;7.88;6.13;;;;;17.40;102569.00;;;;5041257;28;20235;-80
2021/11/20 03:43:28;;;;;;;8.70;6.88;;;;;17.40;102569.00;;;;5047523;28;20215;-80
2021/11/20 03:45:56;;;;;;;8.25;6.22;;;;;17.40;102573.00;;;;5047696;28;20195;-80
2021/11/20 03:48:23;;;;;;;8.50;6.22;;;;;17.40;102570.00;;;;5047240;28;20250;-80
2021/11/20 03:50:50;;;;;;;8.90;6.28;;;;;17.40;102573.00;;;;5035215;28;20726;-80
2021/11/20 03:53:18;;;;;;;9.70;7.03;;;;;17.30;102565.00;;;;5041406;28;20196;-81
2021/11/20 03:55:50;;;;;;;9.65;6.95;;;;;17.30;102560.00;;;;5049675;28;20199;-81
2021/11/20 03:58:19;;;;;;;8.98;6.72;;;;;17.30;102555.00;;;;5043056;28;20199;-81
2021/11/20 04:00:49;;;;;;;11.30;6.80;;;;;17.30;102556.00;;;;5030532;28;20303;-80
2021/11/20 04:03:20;;;;;;;8.82;6.20;;;;;17.30;102554.00;;;;5028945;28;20208;-80
2021/11/20 04:05:49;;;;;;;10.68;6.75;;;;;17.30;102555.00;;;;5036690;28;20217;-80
2021/11/20 04:08:16;;;;;;;9.20;6.38;;;;;17.30;102557.00;;;;5028993;28;20591;-81
2021/11/20 04:10:44;;;;;;;8.02;5.88;;;;;17.30;102554.00;;;;5044874;28;20195;-80
2021/11/20 04:13:12;;;;;;;9.82;6.65;;;;;17.30;102555.00;;;;5047831;28;20199;-80
2021/11/20 04:15:39;;;;;;;9.45;7.07;;;;;17.30;102558.00;;;;5047143;28;20202;-80
2021/11/20 04:18:07;;;;;;;10.27;6.97;;;;;17.30;102564.00;;;;5041980;28;20196;-80
2021/11/20 04:20:35;;;;;;;8.88;6.93;;;;;17.30;102561.00;;;;5043368;28;20230;-80
2021/11/20 04:23:04;;;;;;;9.00;6.78;;;;;17.30;102550.00;;;;5048648;28;20199;-80
2021/11/20 04:25:31;;;;;;;9.02;6.90;;;;;17.30;102559.00;;;;5039834;28;20223;-81
2021/11/20 04:27:59;;;;;;;8.55;6.18;;;;;17.30;102559.00;;;;5047248;28;20199;-80
2021/11/20 04:30:28;;;;;;;9.48;7.05;;;;;17.20;102546.00;;;;5048051;28;20242;-80
2021/11/20 04:32:57;;;;;;;10.40;6.47;;;;;17.30;102547.00;;;;5046816;28;20691;-81
2021/11/20 04:35:26;;;;;;;11.75;7.95;;;;;17.20;102547.00;;;;5031969;28;20204;-81
2021/11/20 04:37:54;;;;;;;11.35;7.53;;;;;17.20;102543.00;;;;5029336;28;20201;-80
2021/11/20 04:40:22;;;;;;;12.82;8.13;;;;;17.20;102547.00;;;;5033162;28;20228;-81
2021/11/20 04:42:51;;;;;;;11.95;7.93;;;;;17.20;102541.00;;;;5046834;28;20200;-80
2021/11/20 04:45:21;;;;;;;12.30;7.93;;;;;17.20;102540.00;;;;5046077;28;20187;-80
2021/11/20 04:47:50;;;;;;;12.18;7.82;;;;;17.20;102543.00;;;;5051806;28;20187;-79
2021/11/20 04:50:19;;;;;;;14.57;8.68;;;;;17.20;102545.00;;;;5043470;28;20211;-80
2021/11/20 04:52:47;;;;;;;12.63;7.65;;;;;17.20;102550.00;;;;5042624;28;20661;-80
2021/11/20 04:55:15;;;;;;;14.38;7.97;;;;;17.20;102543.00;;;;5036454;28;20200;-81
2021/11/20 04:57:42;;;;;;;13.30;7.15;;;;;17.20;102549.00;;;;5048161;28;20204;-80
2021/11/20 05:00:13;;;;;;;12.95;8.20;;;;;17.20;102547.00;;;;5047002;28;20227;-80
2021/11/20 05:02:41;;;;;;;12.18;7.30;;;;;17.20;102545.00;;;;5036432;28;20223;-80
2021/11/20 05:05:10;;;;;;;15.18;7.50;;;;;17.20;102554.00;;;;5046890;28;20943;-80
2021/11/20 05:07:37;;;;;;;12.77;7.28;;;;;17.20;102551.00;;;;5050693;28;20196;-80
2021/11/20 05:10:06;;;;;;;13.07;8.10;;;;;17.10;102553.00;;;;5051362;28;20202;-80
2021/11/20 05:12:34;;;;;;;14.88;8.80;;;;;17.10;102552.00;;;;5049208;28;20192;-80
2021/11/20 05:15:01;;;;;;;12.35;8.52;;;;;17.10;102543.00;;;;5037560;28;20195;-81
2021/11/20 05:17:28;;;;;;;11.48;7.03;;;;;17.20;102548.00;;;;5049720;28;20202;-81
2021/11/20 05:19:56;;;;;;;12.48;7.68;;;;;17.20;102543.00;;;;5040217;28;20744;-81
2021/11/20 05:22:24;;;;;;;13.80;8.63;;;;;17.10;102541.00;;;;5031777;28;20939;-81
2021/11/20 05:24:52;;;;;;;13.20;8.20;;;;;17.10;102528.00;;;;5031834;28;20693;-81
2021/11/20 05:27:19;;;;;;;12.68;8.27;;;;;17.10;102528.00;;;;5035688;28;20196;-82
2021/11/20 05:29:52;;;;;;;13.38;8.50;;;;;17.10;102531.00;;;;5044445;28;20206;-81
2021/11/20 05:32:19;;;;;;;13.60;9.05;;;;;17.10;102524.00;;;;5045785;28;20200;-81
2021/11/20 05:34:47;;;;;;;13.82;8.57;;;;;17.20;102525.00;;;;5032314;28;20205;-81
2021/11/20 05:37:14;;;;;;;15.02;8.75;;;;;17.10;102517.00;;;;5031524;28;20200;-81
2021/11/20 05:39:43;;;;;;;14.90;8.60;;;;;17.10;102518.00;;;;5035871;28;20197;-81
2021/11/20 05:42:10;;;;;;;12.75;7.70;;;;;17.10;102517.00;;;;5030454;28;20207;-81
2021/11/20 05:44:37;;;;;;;13.65;8.55;;;;;17.20;102512.00;;;;5033169;28;20215;-81
2021/11/20 05:47:05;;;;;;;13.50;8.05;;;;;17.20;102507.00;;;;5031330;28;20199;-82
2021/11/20 05:49:35;;;;;;;12.73;8.00;;;;;17.20;102513.00;;;;5037940;28;20200;-81
2021/11/20 05:52:03;;;;;;;13.23;8.45;;;;;17.20;102513.00;;;;5041211;28;20506;-82
2021/11/20 05:54:31;;;;;;;14.68;8.73;;;;;17.20;102504.00;;;;5041565;28;20290;-81
2021/11/20 05:57:00;;;;;;;13.57;8.23;;;;;17.20;102507.00;;;;5042871;28;20199;-82
2021/11/20 05:59:27;;;;;;;12.70;8.27;;;;;17.20;102503.00;;;;5031476;28;20580;-81
2021/11/20 06:01:55;;;;;;;13.40;8.30;;;;;17.20;102498.00;;;;5044377;28;20239;-82
2021/11/20 06:04:22;;;;;;;13.32;7.75;;;;;17.20;102495.00;;;;5047184;28;20203;-82
2021/11/20 06:06:49;;;;;;;13.90;8.52;;;;;17.20;102499.00;;;;5043186;28;20198;-81
2021/11/20 06:09:17;;;;;;;16.42;9.57;;;;;17.20;102487.00;;;;5044995;28;20191;-81
2021/11/20 06:11:44;;;;;;;13.73;9.02;;;;;17.20;102484.00;;;;5046181;28;20195;-81
2021/11/20 06:14:13;;;;;;;13.90;8.30;;;;;17.20;102479.00;;;;5030158;28;20223;-81
2021/11/20 06:16:40;;;;;;;13.00;8.18;;;;;17.20;102477.00;;;;5029977;28;20662;-81
2021/11/20 06:19:09;;;;;;;13.45;8.30;;;;;17.20;102475.00;;;;5040058;28;21034;-80
2021/11/20 06:21:37;;;;;;;13.75;8.77;;;;;17.20;102477.00;;;;5042902;28;20319;-81
2021/11/20 06:24:05;;;;;;;13.55;8.68;;;;;17.10;102473.00;;;;5042332;28;20192;-81
2021/11/20 06:26:32;;;;;;;12.02;8.25;;;;;17.10;102473.00;;;;5039300;28;20211;-81
2021/11/20 06:28:59;;;;;;;13.90;8.50;;;;;17.10;102468.00;;;;5050011;28;20195;-81
2021/11/20 06:31:28;;;;;;;13.18;8.77;;;;;17.10;102462.00;;;;5045297;28;20220;-81
2021/11/20 06:33:57;;;;;;;14.18;9.35;;;;;17.10;102469.00;;;;5042402;28;20204;-81
2021/11/20 06:36:24;;;;;;;12.55;8.57;;;;;17.10;102466.00;;;;5033372;28;20580;-82
2021/11/20 06:38:52;;;;;;;13.43;8.75;;;;;17.10;102468.00;;;;5041280;28;20192;-81
2021/11/20 06:41:19;;;;;;;14.05;9.25;;;;;17.10;102464.00;;;;5048554;28;20231;-81
2021/11/20 06:43:46;;;;;;;13.80;9.45;;;;;17.10;102463.00;;;;5030841;28;20208;-82
2021/11/20 06:46:16;;;;;;;14.18;8.68;;;;;17.10;102471.00;;;;5033483;28;20194;-82
2021/11/20 06:48:45;;;;;;;12.98;8.98;;;;;17.00;102471.00;;;;5041431;28;20199;-81
2021/11/20 06:51:16;;;;;;;12.50;9.07;;;;;17.00;102467.00;;;;5039047;28;20196;-82
2021/11/20 06:53:45;;;;;;;13.85;8.88;;;;;17.00;102474.00;;;;5035903;28;20228;-81
2021/11/20 06:56:16;;;;;;;13.73;8.88;;;;;17.00;102471.00;;;;5049203;28;20207;-81
2021/11/20 06:59:05;;;;;;;12.55;8.70;;;;;17.00;102472.00;;;;5048892;28;20242;-82
2021/11/20 07:01:33;;;;;;;11.57;8.20;;;;;17.00;102471.00;;;;5044854;28;20230;-82
2021/11/20 07:04:04;;;;;;;12.60;9.35;;;;;17.00;102474.00;;;;5047952;28;20195;-82
2021/11/20 07:06:35;;;;;;;11.73;8.23;;;;;17.00;102470.00;;;;5044144;28;20200;-81
2021/11/20 07:09:03;;;;;;;12.98;9.50;;;;;17.00;102477.00;;;;5048554;28;20199;-81
2021/11/20 07:11:30;;;;;;;12.10;9.05;;;;;17.00;102477.00;;;;5043244;28;20208;-79
2021/11/20 07:14:00;;;;;;;10.68;8.18;;;;;16.90;102479.00;;;;5044686;28;20199;-80
2021/11/20 07:16:29;;;;;;;10.10;8.02;;;;;16.90;102471.00;;;;5036366;28;20204;-81
2021/11/20 07:18:57;;;;;;;10.43;8.27;;;;;16.90;102480.00;;;;5047785;28;20206;-80
2021/11/20 07:21:27;;;;;;;11.30;8.90;;;;;16.90;102468.00;;;;5037891;28;20231;-82
2021/11/20 07:23:56;;;;;;;11.32;8.50;;;;;16.90;102471.00;;;;5039635;28;20218;-81
2021/11/20 07:26:24;;;;;;;11.38;8.32;;;;;16.90;102466.00;;;;5042948;28;20805;-81
2021/11/20 07:28:53;;;;;;;10.85;9.20;;;;;16.90;102470.00;;;;5041807;28;20579;-82
2021/11/20 07:31:21;;;;;;;13.35;9.32;;;;;17.00;102481.00;;;;5033784;28;20196;-84
2021/11/20 07:33:48;;;;;;;13.18;8.95;;;;;16.90;102472.00;;;;5034336;28;23524;-82
2021/11/20 07:36:18;;;;;;;14.27;10.35;;;;;17.00;102465.00;;;;5047230;28;20196;-83
2021/11/20 07:38:49;;;;;;;12.07;9.15;;;;;17.00;102458.00;;;;5038853;28;20200;-83
2021/11/20 07:41:16;;;;;;;13.15;9.60;;;;;17.00;102463.00;;;;5041133;28;20711;-83
2021/11/20 07:43:44;;;;;;;12.70;9.35;;;;;17.00;102459.00;;;;5042004;28;20646;-83
2021/11/20 07:46:14;;;;;;;12.90;9.45;;;;;17.00;102465.00;;;;5038656;28;20421;-83
2021/11/20 07:48:41;;;;;;;12.95;9.32;;;;;17.00;102455.00;;;;5036064;28;20669;-84
2021/11/20 07:51:11;;;;;;;15.43;10.30;;;;;17.00;102456.00;;;;5038579;28;20196;-82
2021/11/20 07:53:39;;;;;;;15.75;11.18;;;;;17.00;102464.00;;;;5039349;28;20231;-82
2021/11/20 07:56:09;;;;;;;13.90;10.38;;;;;17.00;102447.00;;;;5030041;28;20200;-81
2021/11/20 07:58:38;;;;;;;14.18;10.38;;;;;17.00;102448.00;;;;5028307;28;20210;-82
2021/11/20 08:01:06;;;;;;;14.55;10.38;;;;;17.00;102438.00;;;;5036983;28;20220;-82
2021/11/20 08:03:34;;;;;;;13.68;10.45;;;;;17.00;102439.00;;;;5043664;28;20196;-82
2021/11/20 08:06:01;;;;;;;13.93;11.00;;;;;17.00;102443.00;;;;5035920;28;20192;-82
2021/11/20 08:08:31;;;;;;;12.07;9.38;;;;;17.00;102429.00;;;;5036341;28;20200;-80
2021/11/20 08:10:58;;;;;;;13.30;10.40;;;;;16.90;102433.00;;;;5028146;28;20771;-81
2021/11/20 08:13:27;;;;;;;12.27;9.75;;;;;16.90;102430.00;;;;5027869;28;20561;-83
2021/11/20 08:15:54;;;;;;;11.95;9.43;;;;;17.00;102424.00;;;;5029221;28;20211;-83
2021/11/20 08:18:21;;;;;;;13.35;9.90;;;;;17.00;102421.00;;;;5032927;28;20199;-82
2021/11/20 08:20:49;;;;;;;12.18;9.23;;;;;17.00;102421.00;;;;5046161;28;20219;-81
2021/11/20 08:23:16;;;;;;;12.68;9.65;;;;;17.00;102416.00;;;;5040648;28;20203;-81
2021/11/20 08:25:46;;;;;;;11.73;9.27;;;;;17.00;102409.00;;;;5041848;28;20307;-81
2021/11/20 08:28:16;;;;;;;12.65;9.75;;;;;17.00;102416.00;;;;5029080;28;20203;-80
2021/11/20 08:30:46;;;;;;;14.30;11.15;;;;;17.00;102410.00;;;;5042664;28;20206;-81
2021/11/20 08:33:15;;;;;;;13.02;9.80;;;;;17.00;102411.00;;;;5038917;28;20287;-81
2021/11/20 08:35:42;;;;;;;13.57;10.38;;;;;17.00;102401.00;;;;5037859;28;20245;-82
2021/11/20 08:38:12;;;;;;;11.52;8.88;;;;;17.00;102393.00;;;;5035263;28;20204;-83
2021/11/20 08:40:41;;;;;;;13.27;10.05;;;;;17.00;102395.00;;;;5045600;28;20954;-81
2021/11/20 08:43:09;;;;;;;13.90;9.80;;;;;17.00;102389.00;;;;5051443;28;20195;-81
2021/11/20 08:45:39;;;;;;;12.90;9.10;;;;;17.00;102387.00;;;;5032791;28;20196;-81
2021/11/20 08:48:09;;;;;;;13.60;10.10;;;;;17.00;102385.00;;;;5038288;28;20215;-82
2021/11/20 08:50:39;;;;;;;13.40;9.88;;;;;17.00;102381.00;;;;5040330;28;20688;-81
2021/11/20 08:53:07;;;;;;;14.32;10.02;;;;;17.10;102383.00;;;;5039293;28;20231;-79
2021/11/20 08:55:34;;;;;;;14.93;11.15;;;;;17.10;102370.00;;;;5042373;28;20200;-82
2021/11/20 08:58:02;;;;;;;14.48;10.98;;;;;17.10;102368.00;;;;5043279;28;20197;-82
2021/11/20 09:00:32;;;;;;;16.33;11.52;;;;;17.10;102370.00;;;;5035429;28;20200;-82
2021/11/20 09:03:03;;;;;;;12.45;9.48;;;;;17.10;102376.00;;;;5031085;28;20231;-82
2021/11/20 09:05:36;;;;;;;12.13;9.52;;;;;17.10;102364.00;;;;5035843;28;20786;-83
2021/11/20 09:08:07;;;;;;;12.90;9.63;;;;;17.10;102364.00;;;;5045121;28;20193;-83
2021/11/20 09:10:50;;;;;;;14.27;10.18;;;;;17.10;102363.00;;;;5034714;28;20216;-83
2021/11/20 09:13:20;;;;;;;14.90;10.40;;;;;17.20;102355.00;;;;5039143;28;20200;-82
2021/11/20 09:15:50;;;;;;;14.82;10.65;;;;;17.20;102365.00;;;;5041151;28;20193;-81
2021/11/20 09:18:18;;;;;;;13.40;10.45;;;;;17.20;102363.00;;;;5039666;28;20757;-82
2021/11/20 09:20:49;;;;;;;14.75;11.43;;;;;17.20;102358.00;;;;5042388;28;20196;-82
2021/11/20 09:23:16;;;;;;;14.98;10.77;;;;;17.20;102358.00;;;;5034239;28;20623;-83
2021/11/20 09:25:44;;;;;;;14.77;10.95;;;;;17.20;102358.00;;;;5037551;28;20220;-82
2021/11/20 09:28:13;;;;;;;13.98;10.82;;;;;17.20;102353.00;;;;5035742;28;20197;-83
2021/11/20 09:30:44;;;;;;;13.90;10.23;;;;;17.30;102353.00;;;;5037773;28;20681;-82
2021/11/20 09:33:12;;;;;;;15.68;11.18;;;;;17.30;102352.00;;;;5030951;28;20258;-82
2021/11/20 09:35:41;;;;;;;15.65;11.00;;;;;17.30;102354.00;;;;5040736;28;20682;-80
2021/11/20 09:38:11;;;;;;;18.00;12.55;;;;;17.30;102346.00;;;;5031076;28;20576;-82
2021/11/20 09:40:41;;;;;;;16.58;11.77;;;;;17.30;102343.00;;;;5039443;28;20215;-81
2021/11/20 09:43:09;;;;;;;14.85;11.57;;;;;17.40;102348.00;;;;5040342;28;20230;-82
2021/11/20 09:45:39;;;;;;;15.02;11.27;;;;;17.40;102351.00;;;;5033291;28;20266;-81
2021/11/20 09:48:14;;;;;;;14.35;11.25;;;;;17.30;102359.00;;;;5040166;28;20200;-82
2021/11/20 09:50:47;;;;;;;13.82;10.20;;;;;17.40;102362.00;;;;5039806;28;20583;-81
2021/11/20 09:53:16;;;;;;;15.50;11.27;;;;;17.40;102356.00;;;;5045448;28;20227;-82
2021/11/20 09:55:49;;;;;;;17.50;11.65;;;;;17.40;102350.00;;;;5036908;28;20195;-81
2021/11/20 09:58:22;;;;;;;16.58;11.35;;;;;17.40;102347.00;;;;5030564;28;20204;-82
2021/11/20 10:01:22;;;;;;;16.92;11.35;;;;;17.30;102352.00;;;;5046033;28;20206;-82
2021/11/20 10:03:52;;;;;;;15.45;10.98;;;;;17.50;102349.00;;;;5031164;28;20205;-80
2021/11/20 10:06:29;;;;;;;16.02;11.50;;;;;17.40;102343.00;;;;5032744;28;20211;-80
2021/11/20 10:09:14;;;;;;;17.52;12.30;;;;;17.40;102330.00;;;;5041213;28;20327;-81
2021/11/20 10:11:54;;;;;;;15.45;11.48;;;;;17.40;102331.00;;;;5040395;28;20196;-80
2021/11/20 10:14:29;;;;;;;18.08;11.95;;;;;17.50;102321.00;;;;5046349;28;20196;-80
2021/11/20 10:17:03;;;;;;;17.60;11.70;;;;;17.50;102312.00;;;;5039803;28;20198;-80
2021/11/20 10:19:36;;;;;;;17.50;12.57;;;;;17.50;102315.00;;;;5043239;28;20206;-80
2021/11/20 10:22:14;;;;;;;18.25;13.23;;;;;17.50;102324.00;;;;5047408;28;20230;-80
2021/11/20 10:25:10;;;;;;;19.23;13.40;;;;;17.50;102317.00;;;;5038379;28;20193;-84
2021/11/20 10:27:55;;;;;;;19.88;12.60;;;;;17.50;102322.00;;;;5044009;28;20285;-83
2021/11/20 10:30:34;;;;;;;19.92;13.27;;;;;17.50;102318.00;;;;5035974;28;20195;-83
2021/11/20 10:33:06;;;;;;;21.65;14.15;;;;;17.50;102322.00;;;;5050985;28;20207;-83
2021/11/20 10:35:35;;;;;;;20.90;13.48;;;;;17.50;102317.00;;;;5055764;28;20199;-82
2021/11/20 10:38:11;;;;;;;20.02;13.45;;;;;17.50;102317.00;;;;5056151;28;20200;-82
2021/11/20 10:40:44;;;;;;;19.90;12.25;;;;;17.50;102315.00;;;;5047648;28;20252;-82
2021/11/20 10:43:19;;;;;;;20.38;12.90;;;;;17.60;102307.00;;;;5042004;28;20772;-83
2021/11/20 10:45:49;;;;;;;17.75;12.38;;;;;17.60;102308.00;;;;5037999;28;20199;-81
2021/11/20 10:48:29;;;;;;;20.63;13.52;;;;;17.60;102309.00;;;;5030879;28;20192;-82
2021/11/20 10:51:16;;;;;;;21.42;12.15;;;;;17.60;102305.00;;;;5046620;28;20195;-81
2021/11/20 10:53:58;;;;;;;18.48;12.30;;;;;17.60;102303.00;;;;5045665;28;20600;-80
2021/11/20 10:56:35;;;;;;;19.17;13.15;;;;;17.60;102293.00;;;;5042439;28;20223;-82
2021/11/20 10:59:19;;;;;;;17.95;12.18;;;;;17.70;102292.00;;;;5037122;28;20693;-82
2021/11/20 11:02:25;;;;;;;18.05;13.00;;;;;17.60;102284.00;;;;5050613;28;20216;-82
2021/11/20 11:05:36;;;;;;;19.17;11.93;;;;;17.60;102280.00;;;;5042528;28;20210;-81
2021/11/20 11:08:12;;;;;;;17.63;11.95;;;;;17.70;102272.00;;;;5051465;28;20208;-83
2021/11/20 11:10:44;;;;;;;19.05;12.15;;;;;17.70;102265.00;;;;5039352;28;20200;-84
2021/11/20 11:13:19;;;;;;;19.70;13.45;;;;;17.70;102256.00;;;;5044710;28;20204;-82
2021/11/20 11:16:03;;;;;;;19.60;12.55;;;;;17.60;102252.00;;;;5044323;28;20204;-83
2021/11/20 11:18:40;;;;;;;20.55;13.38;;;;;17.70;102252.00;;;;5035741;28;20221;-82
2021/11/20 11:21:33;;;;;;;28.92;20.25;;;;;17.60;102250.00;;;;5052894;28;20832;-82
2021/11/20 11:24:39;;;;;;;22.05;14.38;;;;;17.70;102243.00;;;;5035608;28;20199;-80
2021/11/20 11:27:13;;;;;;;19.42;13.82;;;;;17.70;102229.00;;;;5029040;28;20277;-80
2021/11/20 11:30:09;;;;;;;21.88;12.90;;;;;17.60;102231.00;;;;5036286;28;20196;-79
2021/11/20 11:32:42;;;;;;;19.80;13.85;;;;;17.70;102215.00;;;;5038841;28;20214;-82
2021/11/20 11:35:17;;;;;;;21.42;14.75;;;;;17.80;102213.00;;;;5052079;28;20253;-83
2021/11/20 11:38:08;;;;;;;18.75;13.65;;;;;17.70;102213.00;;;;5047487;28;20206;-81
2021/11/20 11:40:44;;;;;;;17.13;11.95;;;;;17.70;102204.00;;;;5040728;28;20196;-82
2021/11/20 11:43:17;;;;;;;19.55;12.73;;;;;17.70;102207.00;;;;5037843;28;20323;-82
2021/11/20 11:46:19;;;;;;;18.42;12.85;;;;;17.70;102204.00;;;;5035238;28;20204;-83
2021/11/20 11:49:08;;;;;;;16.13;11.75;;;;;17.70;102194.00;;;;5034311;28;20195;-84
2021/11/20 11:51:43;;;;;;;16.00;10.93;;;;;17.70;102192.00;;;;5035707;28;20206;-84
2021/11/20 11:54:37;;;;;;;15.18;11.57;;;;;17.70;102189.00;;;;5044616;28;20219;-82
2021/11/20 11:57:22;;;;;;;16.70;12.07;;;;;17.70;102186.00;;;;5038727;28;20695;-82
2021/11/20 12:00:01;;;;;;;14.13;10.77;;;;;17.70;102185.00;;;;5044454;28;20661;-83
2021/11/20 12:02:50;;;;;;;18.35;12.52;;;;;17.60;102181.00;;;;5043394;28;20315;-82
2021/11/20 12:05:35;;;;;;;14.82;10.48;;;;;17.70;102176.00;;;;5042815;28;20184;-83
2021/11/20 12:08:33;;;;;;;14.30;10.15;;;;;17.60;102179.00;;;;5045152;28;20192;-82
2021/11/20 12:11:05;;;;;;;15.50;10.57;;;;;17.70;102163.00;;;;5038783;28;20200;-82
2021/11/20 12:13:37;;;;;;;16.95;10.35;;;;;17.70;102157.00;;;;5033124;28;20258;-83
2021/11/20 12:16:10;;;;;;;17.65;10.50;;;;;17.70;102150.00;;;;5032384;28;20201;-83
2021/11/20 12:18:54;;;;;;;13.77;9.77;;;;;17.60;102151.00;;;;5038064;28;20279;-82